createdAt,value
2022-10-17T00:01:14.449Z,101775.63
2022-10-17T00:03:42.664Z,101776.25
2022-10-17T00:06:13.157Z,101775.84
2022-10-17T00:08:43.037Z,101781.13
2022-10-17T00:11:18.053Z,101781.84
2022-10-17T00:13:48.256Z,101779.81
2022-10-17T00:16:28.158Z,101781.25
2022-10-17T00:18:57.361Z,101789.63
2022-10-17T00:21:26.823Z,101789.41
2022-10-17T00:24:00.095Z,101795.84
2022-10-17T00:26:31.381Z,101796.19
2022-10-17T00:28:59.687Z,101795.47
2022-10-17T00:31:28.054Z,101788.06
2022-10-17T00:33:56.923Z,101789.13
2022-10-17T00:36:26.570Z,101798.84
2022-10-17T00:38:58.928Z,101793.69
2022-10-17T00:41:32.938Z,101800.25
2022-10-17T00:44:24.041Z,101799.16
2022-10-17T00:46:52.274Z,101806.09
2022-10-17T00:49:26.410Z,101804.66
2022-10-17T00:52:04.770Z,101803.09
2022-10-17T00:54:39.730Z,101804.97
2022-10-17T00:57:08.107Z,101804.53
2022-10-17T00:59:39.700Z,101804.06
2022-10-17T01:02:14.678Z,101798.69
2022-10-17T01:04:47.235Z,101800.34
2022-10-17T01:07:15.706Z,101796.44
2022-10-17T01:09:46.400Z,101793.56
2022-10-17T01:12:30.538Z,101796.53
2022-10-17T01:15:19.362Z,101791.50
2022-10-17T01:18:14.200Z,101793.75
2022-10-17T01:21:03.017Z,101790.75
2022-10-17T01:23:40.446Z,101795.53
2022-10-17T01:26:23.058Z,101790.03
2022-10-17T01:29:25.923Z,101790.25
2022-10-17T01:32:08.826Z,101783.84
2022-10-17T01:35:01.195Z,101786.69
2022-10-17T01:37:37.919Z,101785.91
2022-10-17T01:40:33.554Z,101783.03
2022-10-17T01:43:15.146Z,101786.00
2022-10-17T01:45:58.991Z,101788.03
2022-10-17T01:48:37.033Z,101781.22
2022-10-17T01:51:21.309Z,101786.56
2022-10-17T01:53:56.855Z,101779.88
2022-10-17T01:56:30.272Z,101780.00
2022-10-17T01:59:25.719Z,101781.44
2022-10-17T02:01:57.907Z,101775.00
2022-10-17T02:04:27.808Z,101783.97
2022-10-17T02:06:56.146Z,101786.00
2022-10-17T02:09:27.022Z,101777.28
2022-10-17T02:12:07.292Z,101772.16
2022-10-17T02:14:54.529Z,101769.63
2022-10-17T02:17:52.783Z,101760.41
2022-10-17T02:20:31.898Z,101773.81
2022-10-17T02:23:04.232Z,101762.56
2022-10-17T02:26:06.944Z,101768.41
2022-10-17T02:28:53.644Z,101763.25
2022-10-17T02:31:54.574Z,101757.38
2022-10-17T02:34:32.198Z,101757.59
2022-10-17T02:37:05.119Z,101755.72
2022-10-17T02:39:35.926Z,101758.69
2022-10-17T02:42:09.059Z,101758.97
2022-10-17T02:44:44.868Z,101760.16
2022-10-17T02:47:39.311Z,101757.50
2022-10-17T02:50:08.088Z,101758.53
2022-10-17T02:53:04.743Z,101761.84
2022-10-17T02:55:39.201Z,101763.84
2022-10-17T02:58:24.158Z,101768.16
2022-10-17T03:00:53.439Z,101771.38
2022-10-17T03:03:27.641Z,101772.22
2022-10-17T03:05:56.278Z,101778.19
2022-10-17T03:08:29.076Z,101779.66
2022-10-17T03:10:57.935Z,101776.94
2022-10-17T03:13:29.323Z,101786.22
2022-10-17T03:15:58.160Z,101781.94
2022-10-17T03:18:26.461Z,101785.75
2022-10-17T03:20:59.378Z,101787.53
2022-10-17T03:23:27.622Z,101785.63
2022-10-17T03:25:56.391Z,101785.88
2022-10-17T03:28:24.707Z,101788.50
2022-10-17T03:30:53.133Z,101785.88
2022-10-17T03:33:21.330Z,101787.06
2022-10-17T03:38:23.678Z,101792.00
2022-10-17T03:40:58.191Z,101802.41
2022-10-17T03:43:26.449Z,101806.91
2022-10-17T03:45:54.660Z,101802.09
2022-10-17T03:48:22.862Z,101810.09
2022-10-17T03:50:51.636Z,101808.41
2022-10-17T03:53:20.168Z,101806.72
2022-10-17T03:55:48.768Z,101813.66
2022-10-17T03:58:20.250Z,101812.47
2022-10-17T04:00:49.191Z,101811.78
2022-10-17T04:03:17.511Z,101813.28
2022-10-17T04:05:46.132Z,101818.41
2022-10-17T04:08:14.325Z,101813.97
2022-10-17T04:11:07.183Z,101819.03
2022-10-17T04:13:36.103Z,101821.03
2022-10-17T04:16:13.341Z,101817.66
2022-10-17T04:18:56.740Z,101831.16
2022-10-17T04:21:28.686Z,101824.88
2022-10-17T04:24:01.205Z,101825.59
2022-10-17T04:27:01.623Z,101829.41
2022-10-17T04:29:33.396Z,101834.22
2022-10-17T04:32:28.003Z,101833.38
2022-10-17T04:35:16.731Z,101840.44
2022-10-17T04:37:49.383Z,101841.75
2022-10-17T04:40:19.829Z,101846.44
2022-10-17T04:42:48.491Z,101853.06
2022-10-17T04:45:21.189Z,101848.81
2022-10-17T04:47:52.953Z,101856.38
2022-10-17T04:50:21.204Z,101857.00
2022-10-17T04:53:09.376Z,101852.50
2022-10-17T04:55:39.005Z,101859.44
2022-10-17T04:58:10.184Z,101857.63
2022-10-17T05:00:39.311Z,101858.31
2022-10-17T05:03:20.539Z,101858.31
2022-10-17T05:05:48.743Z,101867.63
2022-10-17T05:08:17.931Z,101864.88
2022-10-17T05:10:46.444Z,101873.63
2022-10-17T05:13:15.337Z,101877.31
2022-10-17T05:15:43.679Z,101874.56
2022-10-17T05:18:13.467Z,101870.19
2022-10-17T05:20:45.089Z,101871.13
2022-10-17T05:23:16.334Z,101879.13
2022-10-17T05:25:45.714Z,101877.13
2022-10-17T05:28:13.865Z,101877.31
2022-10-17T05:30:45.248Z,101881.16
2022-10-17T05:33:13.573Z,101883.06
2022-10-17T05:35:42.102Z,101875.50
2022-10-17T05:38:10.475Z,101892.22
2022-10-17T05:40:40.997Z,101883.19
2022-10-17T05:43:09.575Z,101881.53
2022-10-17T05:45:38.571Z,101889.94
2022-10-17T05:48:10.275Z,101891.50
2022-10-17T05:50:38.550Z,101890.44
2022-10-17T05:53:12.757Z,101896.59
2022-10-17T05:55:46.236Z,101903.84
2022-10-17T05:58:21.992Z,101899.59
2022-10-17T06:01:13.503Z,101913.56
2022-10-17T06:03:41.738Z,101918.00
2022-10-17T06:06:14.274Z,101931.44
2022-10-17T06:08:45.826Z,101921.56
2022-10-17T06:11:17.776Z,101929.75
2022-10-17T06:13:47.085Z,101934.47
2022-10-17T06:16:24.302Z,101934.47
2022-10-17T06:18:52.595Z,101939.53
2022-10-17T06:21:24.576Z,101942.97
2022-10-17T06:23:54.875Z,101946.41
2022-10-17T06:26:33.562Z,101938.38
2022-10-17T06:29:01.903Z,101950.38
2022-10-17T06:31:36.093Z,101950.38
2022-10-17T06:34:05.160Z,101950.09
2022-10-17T06:36:33.437Z,101957.59
2022-10-17T06:39:02.488Z,101957.84
2022-10-17T06:41:44.948Z,101967.28
2022-10-17T06:44:13.368Z,101967.50
2022-10-17T06:47:20.204Z,101976.38
2022-10-17T06:49:49.925Z,101979.19
2022-10-17T06:52:30.519Z,101981.63
2022-10-17T06:55:22.636Z,101984.88
2022-10-17T06:58:17.007Z,101987.09
2022-10-17T07:01:12.161Z,101988.38
2022-10-17T07:03:43.623Z,101985.50
2022-10-17T07:06:13.369Z,101987.56
2022-10-17T07:08:45.028Z,101991.66
2022-10-17T07:11:21.755Z,101991.69
2022-10-17T07:13:52.744Z,101987.97
2022-10-17T07:16:23.016Z,101990.34
2022-10-17T07:18:59.228Z,101996.81
2022-10-17T07:21:28.455Z,101996.78
2022-10-17T07:23:57.015Z,101992.84
2022-10-17T07:26:25.504Z,101991.25
2022-10-17T07:28:55.421Z,101993.06
2022-10-17T07:31:33.264Z,101990.72
2022-10-17T07:34:20.493Z,101981.44
2022-10-17T07:36:48.721Z,101988.38
2022-10-17T07:39:17.294Z,101984.25
2022-10-17T07:41:48.983Z,101984.91
2022-10-17T07:44:17.915Z,101982.16
2022-10-17T07:46:50.528Z,101980.97
2022-10-17T07:49:19.752Z,101985.84
2022-10-17T07:51:49.878Z,101985.03
2022-10-17T07:54:18.476Z,101981.25
2022-10-17T07:56:50.534Z,101979.03
2022-10-17T07:59:19.842Z,101981.38
2022-10-17T08:01:48.223Z,101983.88
2022-10-17T08:04:17.117Z,101982.66
2022-10-17T08:06:45.367Z,101979.00
2022-10-17T08:09:13.565Z,101981.06
2022-10-17T08:11:44.083Z,101972.47
2022-10-17T08:14:15.013Z,101965.03
2022-10-17T08:16:43.797Z,101970.00
2022-10-17T08:19:13.084Z,101970.53
2022-10-17T08:21:41.437Z,101967.97
2022-10-17T08:24:09.620Z,101975.56
2022-10-17T08:26:42.334Z,101974.94
2022-10-17T08:29:16.460Z,101969.69
2022-10-17T08:31:47.732Z,101974.56
2022-10-17T08:34:17.332Z,101975.09
2022-10-17T08:36:45.629Z,101972.28
2022-10-17T08:39:13.807Z,101970.38
2022-10-17T08:41:48.030Z,101974.53
2022-10-17T08:44:33.404Z,101975.00
2022-10-17T08:47:06.070Z,101970.91
2022-10-17T08:49:51.531Z,101974.03
2022-10-17T08:52:57.562Z,101966.47
2022-10-17T08:55:37.828Z,101968.50
2022-10-17T08:58:19.221Z,101963.19
2022-10-17T09:01:00.441Z,101971.72
2022-10-17T09:03:36.929Z,101968.97
2022-10-17T09:06:10.639Z,101962.50
2022-10-17T09:08:47.705Z,101972.22
2022-10-17T09:11:35.349Z,101977.13
2022-10-17T09:14:43.147Z,101967.94
2022-10-17T09:17:29.429Z,101969.69
2022-10-17T09:20:06.166Z,101965.84
2022-10-17T09:22:46.228Z,101969.59
2022-10-17T09:25:18.849Z,101972.09
2022-10-17T09:27:48.943Z,101967.19
2022-10-17T09:30:43.583Z,101971.09
2022-10-17T09:33:23.239Z,101972.34
2022-10-17T09:36:02.871Z,101972.53
2022-10-17T09:38:45.251Z,101970.59
2022-10-17T09:41:44.929Z,101970.19
2022-10-17T09:44:23.510Z,101971.19
2022-10-17T09:47:18.511Z,101975.38
2022-10-17T09:49:48.735Z,101966.38
2022-10-17T09:52:40.230Z,101970.41
2022-10-17T09:55:38.918Z,101973.44
2022-10-17T09:58:08.288Z,101978.06
2022-10-17T10:00:40.025Z,101977.22
2022-10-17T10:03:20.402Z,101971.25
2022-10-17T10:06:07.472Z,101974.44
2022-10-17T10:08:52.439Z,101975.44
2022-10-17T10:11:26.375Z,101970.75
2022-10-17T10:13:54.538Z,101971.81
2022-10-17T10:16:33.285Z,101966.16
2022-10-17T10:19:04.700Z,101968.50
2022-10-17T10:21:54.210Z,101972.31
2022-10-17T10:24:26.931Z,101973.31
2022-10-17T10:27:00.507Z,101968.66
2022-10-17T10:29:34.168Z,101968.00
2022-10-17T10:32:26.485Z,101972.66
2022-10-17T10:34:58.783Z,101967.06
2022-10-17T10:37:43.474Z,101968.91
2022-10-17T10:40:23.688Z,101968.22
2022-10-17T10:42:54.812Z,101964.38
2022-10-17T10:45:48.090Z,101959.56
2022-10-17T10:48:23.631Z,101964.56
2022-10-17T10:51:16.458Z,101962.03
2022-10-17T10:54:05.502Z,101964.16
2022-10-17T10:56:37.170Z,101968.50
2022-10-17T10:59:11.222Z,101959.78
2022-10-17T11:01:54.170Z,101962.50
2022-10-17T11:04:35.323Z,101958.16
2022-10-17T11:07:22.623Z,101959.28
2022-10-17T11:10:30.859Z,101952.47
2022-10-17T11:13:11.066Z,101958.03
2022-10-17T11:15:51.478Z,101948.88
2022-10-17T11:18:31.852Z,101946.13
2022-10-17T11:21:04.308Z,101948.19
2022-10-17T11:24:09.081Z,101950.75
2022-10-17T11:26:46.630Z,101942.16
2022-10-17T11:29:14.899Z,101943.84
2022-10-17T11:31:48.999Z,101937.88
2022-10-17T11:34:36.134Z,101936.22
2022-10-17T11:37:45.971Z,101932.38
2022-10-17T11:40:38.443Z,101932.34
2022-10-17T11:43:18.740Z,64048.03
2022-10-17T11:45:53.083Z,64048.03
2022-10-17T11:49:06.564Z,64048.03
2022-10-17T11:52:00.442Z,64048.03
2022-10-17T11:54:45.791Z,64048.03
2022-10-17T11:57:41.214Z,64048.03
2022-10-17T12:00:27.198Z,64048.03
2022-10-17T12:03:24.798Z,64048.03
2022-10-17T12:05:59.594Z,64048.03
2022-10-17T12:08:42.210Z,64048.03
2022-10-17T12:11:28.514Z,64048.03
2022-10-17T12:13:57.243Z,64048.03
2022-10-17T12:16:25.464Z,64048.03
2022-10-17T12:19:23.671Z,64048.03
2022-10-17T12:22:13.514Z,64048.03
2022-10-17T12:24:45.160Z,64048.03
2022-10-17T12:27:45.909Z,64048.03
2022-10-17T12:30:24.791Z,64048.03
2022-10-17T12:33:07.987Z,64048.03
2022-10-17T12:35:38.692Z,64048.03
2022-10-17T12:38:20.453Z,64048.03
2022-10-17T12:40:50.815Z,64048.03
2022-10-17T12:43:27.746Z,64048.03
2022-10-17T12:46:00.773Z,64048.03
2022-10-17T12:48:34.768Z,64048.03
2022-10-17T12:54:15.170Z,64048.03
2022-10-17T12:56:49.491Z,64048.03
2022-10-17T12:59:27.878Z,64048.03
2022-10-17T13:02:03.448Z,64048.03
2022-10-17T13:04:36.326Z,64048.03
2022-10-17T13:07:04.869Z,64048.03
2022-10-17T13:09:35.339Z,64048.03
2022-10-17T13:12:10.840Z,64048.03
2022-10-17T13:14:42.767Z,64048.03
2022-10-17T13:17:27.631Z,64048.03
2022-10-17T13:19:56.663Z,64048.03
2022-10-17T13:22:28.676Z,64048.03
2022-10-17T13:25:15.800Z,64048.03
2022-10-17T13:27:44.473Z,64048.03
2022-10-17T13:30:28.007Z,64048.03
2022-10-17T13:32:59.706Z,64048.03
2022-10-17T13:38:29.629Z,64048.03
2022-10-17T13:41:10.801Z,64048.03
2022-10-17T13:43:46.616Z,64048.03
2022-10-17T13:46:37.956Z,64048.03
2022-10-17T13:49:24.520Z,64048.03
2022-10-17T13:51:56.194Z,64048.03
2022-10-17T13:54:42.934Z,64048.03
2022-10-17T13:57:29.128Z,64048.03
2022-10-17T14:00:21.989Z,64048.03
2022-10-17T14:02:50.970Z,64048.03
2022-10-17T14:05:21.519Z,64048.03
2022-10-17T14:08:13.744Z,64048.03
2022-10-17T14:10:43.907Z,64048.03
2022-10-17T14:13:36.227Z,64048.03
2022-10-17T14:16:05.128Z,64048.03
2022-10-17T14:18:37.908Z,64048.03
2022-10-17T14:24:16.055Z,64048.03
2022-10-17T14:26:59.575Z,64048.03
2022-10-17T14:29:33.155Z,64048.03
2022-10-17T14:32:06.176Z,64048.03
2022-10-17T14:34:38.005Z,64048.03
2022-10-17T14:37:41.342Z,64048.03
2022-10-17T14:40:17.878Z,64048.03
2022-10-17T14:42:47.451Z,64048.03
2022-10-17T14:45:32.214Z,64048.03
2022-10-17T14:48:17.660Z,64048.03
2022-10-17T14:51:09.072Z,64048.03
2022-10-17T14:53:38.771Z,64048.03
2022-10-17T14:56:24.114Z,64048.03
2022-10-17T14:58:53.050Z,64048.03
2022-10-17T15:01:21.288Z,64048.03
2022-10-17T15:03:49.670Z,64048.03
2022-10-17T15:06:48.491Z,64048.03
2022-10-17T15:09:16.684Z,64048.03
2022-10-17T15:11:44.916Z,64048.03
2022-10-17T15:14:13.054Z,64048.03
2022-10-17T15:16:41.262Z,64048.03
2022-10-17T15:19:12.385Z,64048.03
2022-10-17T15:21:44.788Z,64048.03
2022-10-17T15:24:15.893Z,64048.03
2022-10-17T15:26:44.162Z,64048.03
2022-10-17T15:29:16.227Z,64048.03
2022-10-17T15:31:44.479Z,64048.03
2022-10-17T15:34:12.711Z,64048.03
2022-10-17T15:36:42.559Z,64048.03
2022-10-17T15:39:10.929Z,64048.03
2022-10-17T15:41:39.114Z,64048.03
2022-10-17T15:44:07.540Z,64048.03
2022-10-17T15:46:36.321Z,64048.03
2022-10-17T15:49:08.107Z,64048.03
2022-10-17T15:51:39.048Z,64048.03
2022-10-17T15:54:07.400Z,64048.03
2022-10-17T15:56:43.074Z,64048.03
2022-10-17T15:59:21.742Z,64048.03
2022-10-17T16:01:50.042Z,64048.03
2022-10-17T16:04:18.858Z,64048.03
2022-10-17T16:06:47.076Z,64048.03
2022-10-17T16:09:15.283Z,64048.03
2022-10-17T16:11:45.090Z,64048.03
2022-10-17T16:14:18.289Z,64048.03
2022-10-17T16:16:46.429Z,64048.03
2022-10-17T16:19:14.761Z,64048.03
2022-10-17T16:21:43.066Z,64048.03
2022-10-17T16:24:13.989Z,64048.03
2022-10-17T16:26:45.086Z,64048.03
2022-10-17T16:29:13.398Z,64048.03
2022-10-17T16:31:45.161Z,64048.03
2022-10-17T16:34:14.884Z,64048.03
2022-10-17T16:36:43.440Z,64048.03
2022-10-17T16:39:11.585Z,64048.03
2022-10-17T16:41:40.142Z,64048.03
2022-10-17T16:44:15.184Z,64048.03
2022-10-17T16:46:43.383Z,64048.03
2022-10-17T16:49:12.634Z,64048.03
2022-10-17T16:51:40.797Z,64048.03
2022-10-17T16:54:09.807Z,64048.03
2022-10-17T16:56:38.011Z,64048.03
2022-10-17T16:59:06.163Z,64048.03
2022-10-17T17:01:34.396Z,64048.03
2022-10-17T17:04:04.577Z,64048.03
2022-10-17T17:06:32.905Z,64048.03
2022-10-17T17:09:01.090Z,64048.03
2022-10-17T17:11:29.373Z,64048.03
2022-10-17T17:13:59.403Z,64048.03
2022-10-17T17:16:29.567Z,64048.03
2022-10-17T17:19:00.547Z,64048.03
2022-10-17T17:21:29.155Z,64048.03
2022-10-17T17:24:00.161Z,64048.03
2022-10-17T17:26:32.249Z,64048.03
2022-10-17T17:29:01.482Z,64048.03
2022-10-17T17:31:34.966Z,64048.03
2022-10-17T17:34:03.964Z,64048.03
2022-10-17T17:36:37.169Z,64048.03
2022-10-17T17:39:08.067Z,64048.03
2022-10-17T17:41:39.525Z,64048.03
2022-10-17T17:44:12.403Z,64048.03
2022-10-17T17:46:51.488Z,64048.03
2022-10-17T17:49:19.837Z,64048.03
2022-10-17T17:51:48.516Z,64048.03
2022-10-17T17:54:17.519Z,64048.03
2022-10-17T17:56:45.690Z,64048.03
2022-10-17T17:59:16.816Z,64048.03
2022-10-17T18:01:47.761Z,64048.03
2022-10-17T18:04:18.876Z,64048.03
2022-10-17T18:06:47.287Z,64048.03
2022-10-17T18:09:15.445Z,64048.03
2022-10-17T18:11:43.612Z,64048.03
2022-10-17T18:14:13.794Z,64048.03
2022-10-17T18:16:42.649Z,64048.03
2022-10-17T18:19:11.781Z,64048.03
2022-10-17T18:21:40.036Z,64048.03
2022-10-17T18:24:08.374Z,64048.03
2022-10-17T18:26:37.019Z,64048.03
2022-10-17T18:29:05.486Z,64048.03
2022-10-17T18:31:36.045Z,64048.03
2022-10-17T18:34:05.889Z,64048.03
2022-10-17T18:36:35.152Z,64048.03
2022-10-17T18:39:04.538Z,64048.03
2022-10-17T18:41:33.397Z,64048.03
2022-10-17T18:44:03.089Z,64048.03
2022-10-17T18:46:36.323Z,64048.03
2022-10-17T18:49:04.568Z,64048.03
2022-10-17T18:51:32.776Z,64048.03
2022-10-17T18:54:02.348Z,64048.03
2022-10-17T18:56:31.332Z,64048.03
2022-10-17T18:59:01.268Z,64048.03
2022-10-17T19:01:29.737Z,64048.03
2022-10-17T19:03:59.413Z,64048.03
2022-10-17T19:06:32.109Z,64048.03
2022-10-17T19:09:02.562Z,64048.03
2022-10-17T19:11:32.204Z,64048.03
2022-10-17T19:14:02.190Z,64048.03
2022-10-17T19:16:36.173Z,64048.03
2022-10-17T19:19:08.391Z,64048.03
2022-10-17T19:21:36.727Z,64048.03
2022-10-17T19:24:07.835Z,64048.03
2022-10-17T19:26:36.927Z,64048.03
2022-10-17T19:29:06.285Z,64048.03
2022-10-17T19:31:35.817Z,64048.03
2022-10-17T19:34:04.057Z,64048.03
2022-10-17T19:36:34.075Z,64048.03
2022-10-17T19:39:10.487Z,64048.03
2022-10-17T19:41:42.909Z,64048.03
2022-10-17T19:44:11.549Z,64048.03
2022-10-17T19:46:40.201Z,64048.03
2022-10-17T19:49:08.550Z,64048.03
2022-10-17T19:51:36.803Z,64048.03
2022-10-17T19:54:05.048Z,64048.03
2022-10-17T19:56:38.319Z,64048.03
2022-10-17T19:59:07.156Z,64048.03
2022-10-17T20:01:40.736Z,64048.03
2022-10-17T20:04:10.958Z,64048.03
2022-10-17T20:06:40.074Z,64048.03
2022-10-17T20:09:13.881Z,64048.03
2022-10-17T20:11:45.049Z,64048.03
2022-10-17T20:14:13.235Z,64048.03
2022-10-17T20:16:41.414Z,64048.03
2022-10-17T20:19:12.268Z,64048.03
2022-10-17T20:21:40.622Z,64048.03
2022-10-17T20:24:12.491Z,64048.03
2022-10-17T20:26:43.288Z,64048.03
2022-10-17T20:29:17.789Z,64048.03
2022-10-17T20:31:50.160Z,64048.03
2022-10-17T20:34:19.735Z,64048.03
2022-10-17T20:36:48.694Z,64048.03
2022-10-17T20:39:20.027Z,64048.03
2022-10-17T20:41:51.315Z,64048.03
2022-10-17T20:44:19.811Z,64048.03
2022-10-17T20:47:01.321Z,64048.03
2022-10-17T20:49:31.682Z,64048.03
2022-10-17T20:52:00.880Z,64048.03
2022-10-17T20:54:29.127Z,64048.03
2022-10-17T20:56:59.850Z,64048.03
2022-10-17T20:59:30.924Z,64048.03
2022-10-17T21:01:59.133Z,64048.03
2022-10-17T21:07:17.144Z,64048.03
2022-10-17T21:09:46.388Z,64048.03
2022-10-17T21:12:21.791Z,64048.03
2022-10-17T21:14:59.955Z,64048.03
2022-10-17T21:17:28.377Z,64048.03
2022-10-17T21:19:56.558Z,64048.03
2022-10-17T21:22:24.803Z,64048.03
2022-10-17T21:24:53.097Z,64048.03
2022-10-17T21:27:21.306Z,64048.03
2022-10-17T21:29:49.599Z,64048.03
2022-10-17T21:32:31.916Z,64048.03
2022-10-17T21:35:06.403Z,64048.03
2022-10-17T21:37:34.604Z,64048.03
2022-10-17T21:40:02.843Z,64048.03
2022-10-17T21:42:31.262Z,64048.03
2022-10-17T21:44:59.627Z,64048.03
2022-10-17T21:47:29.653Z,64048.03
2022-10-17T21:49:57.806Z,64048.03
2022-10-17T21:52:25.989Z,64048.03
2022-10-17T21:54:54.175Z,64048.03
2022-10-17T21:57:22.360Z,64048.03
2022-10-17T21:59:50.508Z,64048.03
2022-10-17T22:02:19.363Z,64048.03
2022-10-17T22:04:47.628Z,64048.03
2022-10-17T22:07:15.796Z,64048.03
2022-10-17T22:09:44.022Z,64048.03
2022-10-17T22:12:12.144Z,64048.03
2022-10-17T22:14:40.384Z,64048.03
2022-10-17T22:17:08.534Z,64048.03
2022-10-17T22:19:36.699Z,64048.03
2022-10-17T22:22:04.894Z,64048.03
2022-10-17T22:24:33.036Z,64048.03
2022-10-17T22:27:01.444Z,64048.03
2022-10-17T22:29:29.656Z,64048.03
2022-10-17T22:32:00.528Z,64048.03
2022-10-17T22:34:28.828Z,64048.03
2022-10-17T22:36:56.986Z,64048.03
2022-10-17T22:39:25.065Z,64048.03
2022-10-17T22:41:53.279Z,64048.03
2022-10-17T22:44:21.456Z,64048.03
2022-10-17T22:46:49.740Z,64048.03
2022-10-17T22:49:18.005Z,64048.03
2022-10-17T22:51:46.126Z,64048.03
2022-10-17T22:54:14.300Z,64048.03
2022-10-17T22:56:45.150Z,64048.03
2022-10-17T22:59:13.320Z,64048.03
2022-10-17T23:01:41.562Z,64048.03
2022-10-17T23:04:09.795Z,64048.03
2022-10-17T23:06:37.930Z,64048.03
2022-10-17T23:09:06.133Z,64048.03
2022-10-17T23:11:34.286Z,64048.03
2022-10-17T23:14:02.411Z,64048.03
2022-10-17T23:16:30.515Z,64048.03
2022-10-17T23:18:58.905Z,64048.03
2022-10-17T23:21:27.015Z,64048.03
2022-10-17T23:23:55.283Z,64048.03
2022-10-17T23:26:23.410Z,64048.03
2022-10-17T23:28:54.874Z,64048.03
2022-10-17T23:31:23.184Z,64048.03
2022-10-17T23:33:51.541Z,64048.03
2022-10-17T23:36:20.989Z,64048.03
2022-10-17T23:38:49.750Z,64048.03
2022-10-17T23:41:19.076Z,64048.03
2022-10-17T23:43:47.203Z,64048.03
2022-10-17T23:46:15.377Z,64048.03
2022-10-17T23:48:43.551Z,64048.03
2022-10-17T23:51:11.895Z,64048.03
2022-10-17T23:53:41.238Z,64048.03
2022-10-17T23:56:10.477Z,64048.03
2022-10-17T23:58:39.675Z,64048.03
